Atmospheric History
02/08/2018 18:11  to  2/9/2018 18:11
Change End Date:
To complete the export process:
1) Select all of the data below
2) Copy the data to the clipboard
3) Open a word processor such as Notepad
4) Paste the data into the word processor
5) Save the file

Date/Time (MDT), AirTemp, RH, Dewpoint ,AvgWindSpeed, GustWindSpeed, WindDirection, PrecipType, PrecipIntensity, PrecipAccumulation, PrecipRate
02/09/2018 18:04, -6, 74, -12 ,21, 24, W, None, None, ,  
02/09/2018 18:02, -6, 74, -12 ,22, 24, W, None, None, ,  
02/09/2018 17:54, -6, 74, -12 ,21, 24, W, None, None, ,  
02/09/2018 17:47, -6, 74, -12 ,21, 24, W, None, None, ,  
02/09/2018 17:44, -6, 74, -12 ,20, 25, W, None, None, ,  
02/09/2018 17:34, -5, 74, -11 ,22, 27, W, None, None, ,  
02/09/2018 17:32, -5, 74, -11 ,23, 25, W, None, None, ,  
02/09/2018 17:24, -5, 73, -12 ,20, 23, W, None, None, ,  
02/09/2018 17:17, -5, 73, -11 ,21, 24, W, None, None, ,  
02/09/2018 17:13, -5, 73, -11 ,21, 24, W, None, None, ,  
02/09/2018 17:03, -5, 73, -11 ,19, 24, W, None, None, ,  
02/09/2018 17:02, -5, 73, -11 ,19, 24, W, None, None, ,  
02/09/2018 16:53, -4, 72, -11 ,21, 25, W, None, None, ,  
02/09/2018 16:47, -4, 72, -11 ,19, 24, W, None, None, ,  
02/09/2018 16:43, -4, 72, -10 ,21, 24, W, None, None, ,  
02/09/2018 16:33, -3, 72, -10 ,20, 23, W, None, None, ,  
02/09/2018 16:32, -3, 72, -10 ,20, 23, W, None, None, ,  
02/09/2018 16:23, -3, 72, -10 ,19, 21, W, None, None, ,  
02/09/2018 16:17, -3, 72, -10 ,17, 21, W, None, None, ,  
02/09/2018 16:13, -3, 72, -10 ,17, 21, W, None, None, ,  
02/09/2018 16:03, -2, 72, -9 ,16, 20, W, None, None, ,  
02/09/2018 16:02, -2, 72, -9 ,17, 20, W, None, None, ,  
02/09/2018 15:53, -2, 71, -9 ,16, 20, W, None, None, ,  
02/09/2018 15:47, -1, 71, -9 ,16, 23, W, None, None, ,  
02/09/2018 15:43, -2, 70, -9 ,17, 23, W, None, None, ,  
02/09/2018 15:33, -1, 69, -9 ,20, 25, W, None, None, ,  
02/09/2018 15:32, -1, 69, -9 ,21, 25, W, None, None, ,  
02/09/2018 15:23, -1, 70, -9 ,19, 24, W, None, None, ,  
02/09/2018 15:17, -1, 70, -9 ,19, 24, W, None, None, ,  
02/09/2018 15:13, -1, 70, -9 ,19, 25, W, None, None, ,  
02/09/2018 15:03, -1, 70, -9 ,21, 24, W, None, None, ,  
02/09/2018 15:02, -1, 70, -9 ,21, 24, W, None, None, ,  
02/09/2018 14:53, -1, 70, -9 ,19, 24, W, None, None, ,  
02/09/2018 14:47, -1, 70, -9 ,18, 22, W, None, None, ,  
02/09/2018 14:43, -1, 71, -8 ,19, 24, W, None, None, ,  
02/09/2018 14:33, -1, 71, -9 ,18, 22, W, None, None, ,  
02/09/2018 14:32, -1, 71, -9 ,18, 22, W, None, None, ,  
02/09/2018 14:23, -1, 72, -8 ,18, 22, W, None, None, ,  
02/09/2018 14:17, -2, 72, -9 ,18, 22, W, None, None, ,  
02/09/2018 14:13, -2, 72, -9 ,17, 22, NW, None, None, ,  
02/09/2018 14:03, -2, 73, -9 ,18, 21, W, None, None, ,  
02/09/2018 14:01, -2, 73, -9 ,17, 21, W, None, None, ,  
02/09/2018 13:53, -3, 72, -9 ,20, 22, W, None, None, ,  
02/09/2018 13:47, -2, 73, -9 ,18, 21, W, None, None, ,  
02/09/2018 13:43, -2, 73, -9 ,16, 21, W, None, None, ,  
02/09/2018 13:32, -3, 74, -9 ,16, 21, W, None, None, ,  
02/09/2018 13:32, -3, 73, -9 ,17, 21, W, None, None, ,  
02/09/2018 13:22, -3, 75, -9 ,18, 20, W, None, None, ,  
02/09/2018 13:17, -3, 75, -9 ,15, 19, W, None, None, ,  
02/09/2018 13:12, -2, 76, -8 ,16, 19, W, None, None, ,  
02/09/2018 13:02, -3, 76, -9 ,17, 21, W, None, None, ,  
02/09/2018 13:02, -3, 76, -9 ,17, 21, W, None, None, ,  
02/09/2018 12:52, -3, 77, -8 ,19, 21, W, None, None, ,  
02/09/2018 12:47, -3, 77, -9 ,17, 21, W, None, None, ,  
02/09/2018 12:42, -3, 78, -8 ,14, 19, W, None, None, ,  
02/09/2018 12:32, -3, 78, -9 ,15, 20, W, None, None, ,  
02/09/2018 12:32, -3, 78, -9 ,15, 20, W, None, None, ,  
02/09/2018 12:22, -4, 78, -9 ,17, 19, W, None, None, ,  
02/09/2018 12:17, -4, 78, -9 ,16, 20, W, None, None, ,  
02/09/2018 12:12, -4, 79, -9 ,16, 20, W, None, None, ,  
02/09/2018 12:02, -4, 79, -9 ,19, 21, W, None, None, ,  
02/09/2018 12:02, -4, 79, -9 ,19, 21, W, None, None, ,  
02/09/2018 11:52, -5, 79, -9 ,16, 19, W, None, None, ,  
02/09/2018 11:47, -5, 79, -10 ,17, 19, W, None, None, ,  
02/09/2018 11:42, -5, 79, -10 ,15, 18, W, None, None, ,  
02/09/2018 11:32, -6, 79, -11 ,15, 17, W, None, None, ,  
02/09/2018 11:32, -6, 79, -11 ,15, 17, W, None, None, ,  
02/09/2018 11:22, -7, 79, -11 ,16, 17, W, None, None, ,  
02/09/2018 11:17, -7, 79, -11 ,14, 16, W, None, None, ,  
02/09/2018 11:12, -7, 79, -12 ,14, 16, W, None, None, ,  
02/09/2018 11:02, -8, 79, -13 ,13, 16, W, None, None, ,  
02/09/2018 11:01, -8, 78, -13 ,13, 16, W, None, None, ,  
02/09/2018 10:52, -9, 78, -14 ,13, 16, W, None, None, ,  
02/09/2018 10:47, -9, 78, -14 ,14, 17, W, None, None, ,  
02/09/2018 10:42, -9, 78, -14 ,14, 17, W, None, None, ,  
02/09/2018 10:32, -9, 78, -14 ,15, 19, W, None, None, ,  
02/09/2018 10:31, -9, 78, -14 ,15, 19, W, None, None, ,  
02/09/2018 10:21, -10, 78, -15 ,13, 16, W, None, None, ,  
02/09/2018 10:17, -10, 78, -15 ,12, 14, W, None, None, ,  
02/09/2018 10:11, -10, 77, -16 ,11, 14, W, None, None, ,  
02/09/2018 10:02, -11, 77, -16 ,12, 15, W, None, None, ,  
02/09/2018 10:01, -11, 77, -16 ,12, 15, W, None, None, ,  
02/09/2018 09:51, -11, 77, -16 ,13, 15, W, None, None, ,  
02/09/2018 09:47, -11, 77, -17 ,12, 14, W, None, None, ,  
02/09/2018 09:41, -11, 77, -16 ,12, 16, W, None, None, ,  
02/09/2018 09:32, -11, 77, -16 ,12, 14, W, None, None, ,  
02/09/2018 09:31, -11, 77, -16 ,12, 14, W, None, None, ,  
02/09/2018 09:21, -11, 77, -16 ,10, 12, W, None, None, ,  
02/09/2018 09:17, -12, 77, -17 ,10, 13, W, None, None, ,  
02/09/2018 09:11, -12, 77, -17 ,11, 12, W, None, None, ,  
02/09/2018 09:02, -13, 77, -18 ,10, 12, W, None, None, ,  
02/09/2018 09:01, -13, 77, -18 ,10, 12, W, None, None, ,  
02/09/2018 08:51, -14, 77, -19 ,11, 12, W, None, None, ,  
02/09/2018 08:47, -15, 77, -20 ,9, 12, W, None, None, ,  
02/09/2018 08:41, -15, 76, -20 ,11, 12, W, None, None, ,  
02/09/2018 08:32, -15, 77, -20 ,12, 14, W, None, None, ,  
02/09/2018 08:31, -15, 77, -20 ,12, 14, W, None, None, ,  
02/09/2018 08:21, -15, 77, -20 ,12, 14, W, None, None, ,  
02/09/2018 08:17, -15, 77, -20 ,12, 16, W, None, None, ,  
02/09/2018 08:11, -15, 78, -20 ,13, 16, W, None, None, ,  
02/09/2018 08:01, -16, 77, -21 ,14, 17, W, None, None, ,  
02/09/2018 08:01, -16, 77, -21 ,15, 17, W, None, None, ,  
02/09/2018 07:51, -16, 77, -21 ,13, 15, W, None, None, ,  
02/09/2018 07:46, -16, 77, -21 ,14, 15, W, None, None, ,  
02/09/2018 07:41, -17, 77, -22 ,13, 16, W, None, None, ,  
02/09/2018 07:32, -16, 77, -21 ,14, 15, W, None, None, ,  
02/09/2018 07:31, -16, 77, -21 ,12, 15, W, None, None, ,  
02/09/2018 07:21, -17, 77, -22 ,14, 16, W, None, None, ,  
02/09/2018 07:17, -16, 77, -21 ,14, 16, W, None, None, ,  
02/09/2018 07:11, -17, 77, -22 ,13, 15, W, None, None, ,  
02/09/2018 07:02, -17, 77, -22 ,13, 16, W, None, None, ,  
02/09/2018 07:00, -17, 77, -22 ,13, 16, W, None, None, ,  
02/09/2018 06:50, -16, 78, -21 ,14, 15, W, None, None, ,  
02/09/2018 06:47, -16, 78, -21 ,13, 14, W, None, None, ,  
02/09/2018 06:40, -17, 78, -22 ,12, 13, W, None, None, ,  
02/09/2018 06:32, -16, 78, -21 ,12, 14, W, None, None, ,  
02/09/2018 06:30, -17, 78, -21 ,12, 14, W, None, None, ,  
02/09/2018 06:20, -18, 77, -23 ,11, 12, W, None, None, ,  
02/09/2018 06:17, -18, 77, -23 ,11, 13, W, None, None, ,  
02/09/2018 06:10, -18, 77, -23 ,12, 14, W, None, None, ,  
02/09/2018 06:02, -18, 77, -23 ,12, 14, W, None, None, ,  
02/09/2018 06:00, -18, 78, -22 ,12, 14, W, None, None, ,  
02/09/2018 05:50, -16, 78, -21 ,13, 14, W, None, None, ,  
02/09/2018 05:47, -16, 78, -21 ,12, 13, W, None, None, ,  
02/09/2018 05:40, -16, 78, -21 ,12, 14, W, None, None, ,  
02/09/2018 05:32, -15, 79, -19 ,12, 14, W, None, None, ,  
02/09/2018 05:30, -14, 80, -19 ,13, 14, W, None, None, ,  
02/09/2018 05:20, -16, 78, -20 ,11, 12, W, None, None, ,  
02/09/2018 05:17, -16, 78, -21 ,9, 12, W, None, None, ,  
02/09/2018 05:10, -15, 78, -20 ,10, 12, W, None, None, ,  
02/09/2018 05:02, -14, 79, -19 ,11, 13, W, None, None, ,  
02/09/2018 05:00, -14, 79, -19 ,11, 13, W, None, None, ,  
02/09/2018 04:50, -14, 78, -18 ,12, 15, W, None, None, ,  
02/09/2018 04:47, -13, 79, -17 ,11, 15, W, None, None, ,  
02/09/2018 04:40, -12, 80, -17 ,9, 12, W, None, None, ,  
02/09/2018 04:32, -12, 80, -16 ,9, 13, W, None, None, ,  
02/09/2018 04:30, -12, 80, -16 ,11, 14, W, None, None, ,  
02/09/2018 04:20, -12, 81, -17 ,11, 12, NW, None, None, ,  
02/09/2018 04:17, -14, 79, -18 ,9, 12, W, None, None, ,  
02/09/2018 04:10, -13, 80, -18 ,6, 10, W, None, None, ,  
02/09/2018 04:02, -13, 80, -18 ,7, 11, NW, None, None, ,  
02/09/2018 04:00, -13, 80, -18 ,9, 11, NW, None, None, ,  
02/09/2018 03:50, -12, 81, -16 ,9, 12, W, None, None, ,  
02/09/2018 03:50, -13, 80, -17 ,9, 12, W, None, None, ,  
02/09/2018 03:39, -13, 80, -17 ,7, 10, W, None, None, ,  
02/09/2018 03:32, -13, 80, -18 ,8, 11, NW, None, None, ,  
02/09/2018 03:29, -13, 80, -17 ,7, 11, NW, None, None, ,  
02/09/2018 03:19, -13, 79, -18 ,9, 12, W, None, None, ,  
02/09/2018 03:17, -12, 80, -17 ,9, 12, W, None, None, ,  
02/09/2018 03:09, -13, 79, -18 ,11, 13, W, None, None, ,  
02/09/2018 03:02, -13, 81, -17 ,10, 13, NW, None, None, ,  
02/09/2018 02:59, -14, 80, -18 ,9, 12, NW, None, None, ,  
02/09/2018 02:49, -14, 79, -18 ,7, 9, W, None, None, ,  
02/09/2018 02:47, -13, 79, -18 ,7, 9, W, None, None, ,  
02/09/2018 02:39, -13, 80, -17 ,7, 11, W, None, None, ,  
02/09/2018 02:32, -12, 80, -17 ,7, 11, NW, None, None, ,  
02/09/2018 02:29, -14, 77, -19 ,6, 11, W, None, None, ,  
02/09/2018 02:19, -12, 80, -17 ,7, 10, NW, None, None, ,  
02/09/2018 02:17, -12, 80, -17 ,7, 9, NW, None, None, ,  
02/09/2018 02:09, -13, 80, -17 ,7, 9, W, None, None, ,  
02/09/2018 02:02, -13, 79, -18 ,6, 9, W, None, None, ,  
02/09/2018 01:59, -13, 79, -18 ,6, 9, W, None, None, ,  
02/09/2018 01:49, -12, 80, -16 ,8, 11, W, None, None, ,  
02/09/2018 01:47, -12, 80, -16 ,7, 11, NW, None, None, ,  
02/09/2018 01:39, -12, 79, -17 ,6, 12, W, None, None, ,  
02/09/2018 01:32, -11, 81, -16 ,9, 13, NW, None, None, ,  
02/09/2018 01:29, -12, 80, -16 ,10, 13, W, None, None, ,  
02/09/2018 01:19, -12, 80, -17 ,8, 12, W, None, None, ,  
02/09/2018 01:17, -12, 80, -17 ,9, 12, W, None, None, ,  
02/09/2018 01:09, -13, 78, -18 ,9, 18, W, None, None, ,  
02/09/2018 01:02, -11, 80, -15 ,12, 18, W, None, None, ,  
02/09/2018 00:59, -10, 81, -15 ,12, 17, NW, None, None, ,  
02/09/2018 00:48, -12, 80, -16 ,6, 9, W, None, None, ,  
02/09/2018 00:47, -12, 79, -16 ,6, 9, W, None, None, ,  
02/09/2018 00:38, -11, 79, -16 ,7, 10, W, None, None, ,  
02/09/2018 00:32, -11, 80, -15 ,8, 11, NW, None, None, ,  
02/09/2018 00:28, -11, 79, -15 ,9, 13, W, None, None, ,  
02/09/2018 00:18, -10, 79, -15 ,11, 14, NW, None, None, ,  
02/09/2018 00:17, -10, 79, -15 ,11, 14, NW, None, None, ,  
02/09/2018 00:08, -10, 79, -14 ,11, 14, NW, None, None, ,  
02/09/2018 00:02, -9, 79, -14 ,11, 14, NW, None, None, ,  
02/08/2018 23:58, -9, 79, -14 ,10, 13, NW, None, None, ,  
02/08/2018 23:48, -9, 80, -13 ,6, 11, W, None, None, ,  
02/08/2018 23:47, -9, 80, -13 ,6, 11, W, None, None, ,  
02/08/2018 23:38, -9, 81, -13 ,7, 9, W, None, None, ,  
02/08/2018 23:32, -9, 80, -13 ,6, 9, NW, None, None, ,  
02/08/2018 23:28, -9, 80, -13 ,6, 11, NW, None, None, ,  
02/08/2018 23:18, -9, 79, -14 ,9, 17, NW, None, None, ,  
02/08/2018 23:17, -9, 79, -14 ,9, 17, NW, None, None, ,  
02/08/2018 23:08, -8, 79, -13 ,12, 16, NW, None, None, ,  
02/08/2018 23:02, -8, 78, -13 ,9, 14, NW, None, None, ,  
02/08/2018 22:58, -7, 79, -12 ,9, 17, NW, None, None, ,  
02/08/2018 22:48, -7, 79, -12 ,13, 19, NW, None, None, ,  
02/08/2018 22:47, -7, 79, -12 ,13, 19, NW, None, None, ,  
02/08/2018 22:38, -7, 79, -12 ,14, 19, NW, None, None, ,  
02/08/2018 22:32, -7, 79, -12 ,14, 17, NW, None, None, ,  
02/08/2018 22:28, -7, 79, -12 ,13, 17, NW, None, None, ,  
02/08/2018 22:18, -7, 79, -12 ,14, 19, NW, None, None, ,  
02/08/2018 22:17, -7, 79, -12 ,15, 19, NW, None, None, ,  
02/08/2018 22:08, -7, 78, -12 ,14, 17, NW, None, None, ,  
02/08/2018 22:02, -7, 78, -12 ,12, 15, NW, None, None, ,  
02/08/2018 21:58, -7, 78, -12 ,12, 12, NW, None, None, ,  
02/08/2018 21:48, -7, 78, -12 ,9, 14, NW, None, None, ,  
02/08/2018 21:47, -7, 78, -12 ,10, 14, NW, None, None, ,  
02/08/2018 21:38, -7, 78, -12 ,13, 17, N, None, None, ,  
02/08/2018 21:32, -7, 78, -12 ,15, 17, N, None, None, ,  
02/08/2018 21:28, -7, 78, -12 ,14, 17, N, None, None, ,  
02/08/2018 21:18, -7, 78, -12 ,13, 17, NW, None, None, ,  
02/08/2018 21:17, -7, 78, -12 ,14, 17, NW, None, None, ,  
02/08/2018 21:08, -7, 78, -12 ,14, 17, N, None, None, ,  
02/08/2018 21:02, -7, 78, -12 ,15, 17, N, None, None, ,  
02/08/2018 20:57, -7, 78, -12 ,14, 17, N, None, None, ,  
02/08/2018 20:47, -6, 78, -12 ,12, 13, NW, None, None, ,  
02/08/2018 20:47, -6, 78, -12 ,12, 13, NW, None, None, ,  
02/08/2018 20:37, -6, 77, -12 ,11, 15, NW, None, None, ,  
02/08/2018 20:32, -6, 77, -12 ,12, 15, NW, None, None, ,  
02/08/2018 20:27, -6, 76, -12 ,12, 17, NW, None, None, ,  
02/08/2018 20:17, -6, 76, -12 ,12, 16, NW, None, None, ,  
02/08/2018 20:17, -6, 76, -12 ,12, 16, NW, None, None, ,  
02/08/2018 20:07, -6, 76, -12 ,11, 14, NW, None, None, ,  
02/08/2018 20:02, -6, 76, -12 ,10, 12, NW, None, None, ,  
02/08/2018 19:57, -6, 76, -12 ,9, 12, NW, None, None, ,  
02/08/2018 19:47, -6, 76, -12 ,7, 9, NW, None, None, ,  
02/08/2018 19:47, -6, 76, -12 ,7, 9, NW, None, None, ,  
02/08/2018 19:37, -6, 76, -12 ,7, 12, NW, None, None, ,  
02/08/2018 19:32, -6, 76, -12 ,9, 12, NW, None, None, ,  
02/08/2018 19:27, -6, 75, -12 ,9, 13, NW, None, None, ,  
02/08/2018 19:17, -6, 75, -11 ,11, 16, NW, None, None, ,  
02/08/2018 19:17, -6, 75, -11 ,11, 16, NW, None, None, ,  
02/08/2018 19:07, -5, 75, -11 ,11, 15, N, None, None, ,  
02/08/2018 19:02, -5, 76, -11 ,11, 15, NW, None, None, ,  
02/08/2018 18:57, -5, 75, -11 ,12, 16, N, None, None, ,  
02/08/2018 18:47, -6, 76, -11 ,9, 10, NW, None, None, ,  
02/08/2018 18:47, -6, 76, -11 ,9, 10, NW, None, None, ,  
02/08/2018 18:37, -5, 76, -11 ,6, 9, NW, None, None, ,  
02/08/2018 18:32, -5, 76, -11 ,7, 12, NW, None, None, ,  
02/08/2018 18:27, -5, 76, -11 ,9, 12, NW, None, None, ,  
02/08/2018 18:17, -5, 76, -11 ,9, 12, NW, None, None, ,  
02/08/2018 18:17, -5, 76, -10 ,8, 12, NW, None, None, ,  
Change End Date:

Copyright © 1998-2015 Vaisala, Inc.
All Rights Reserved
Send comments about the data to:
SCAN Web ® is a registered trademark of Vaisala, Inc.
SCAN Web Version 6.0